createdAt,value
2019-01-19T00:00:37.962Z,10.97
2019-01-19T00:03:14.438Z,8.80
2019-01-19T00:06:03.487Z,9.37
2019-01-19T00:08:36.108Z,9.00
2019-01-19T00:11:23.430Z,9.20
2019-01-19T00:13:58.699Z,8.13
2019-01-19T00:16:36.866Z,7.40
2019-01-19T00:19:41.104Z,7.77
2019-01-19T00:22:45.192Z,9.70
2019-01-19T00:25:43.586Z,9.80
2019-01-19T00:28:40.404Z,8.40
2019-01-19T00:31:33.877Z,8.33
2019-01-19T00:34:15.411Z,7.77
2019-01-19T00:36:50.953Z,8.27
2019-01-19T00:39:24.844Z,8.37
2019-01-19T00:42:18.826Z,8.33
2019-01-19T00:45:16.048Z,7.53
2019-01-19T00:47:57.760Z,8.30
2019-01-19T00:50:49.338Z,7.37
2019-01-19T00:53:42.529Z,8.07
2019-01-19T00:56:39.872Z,9.00
2019-01-19T00:59:12.581Z,8.70
2019-01-19T01:01:45.261Z,7.97
2019-01-19T01:04:26.347Z,8.17
2019-01-19T01:07:16.770Z,7.67
2019-01-19T01:10:08.838Z,9.03
2019-01-19T01:12:56.349Z,8.67
2019-01-19T01:15:50.140Z,8.17
2019-01-19T01:18:31.109Z,8.83
2019-01-19T01:21:15.848Z,9.07
2019-01-19T01:23:54.209Z,8.63
2019-01-19T01:26:26.912Z,8.13
2019-01-19T01:29:30.711Z,7.40
2019-01-19T01:32:21.089Z,7.77
2019-01-19T01:35:19.337Z,8.20
2019-01-19T01:37:58.052Z,7.40
2019-01-19T01:40:35.984Z,8.27
2019-01-19T01:43:17.503Z,7.87
2019-01-19T01:46:08.196Z,8.20
2019-01-19T01:48:40.885Z,8.07
2019-01-19T01:51:14.987Z,7.97
2019-01-19T01:53:59.412Z,9.00
2019-01-19T01:56:29.127Z,10.33
2019-01-19T01:59:01.800Z,9.37
2019-01-19T02:01:40.444Z,8.50
2019-01-19T02:04:38.489Z,8.77
2019-01-19T02:07:19.777Z,8.80
2019-01-19T02:10:26.818Z,8.37
2019-01-19T02:13:05.152Z,8.67
2019-01-19T02:15:43.462Z,9.50
2019-01-19T02:18:28.070Z,9.10
2019-01-19T02:21:33.537Z,9.63
2019-01-19T02:24:25.262Z,9.67
2019-01-19T02:27:03.961Z,8.70
2019-01-19T02:29:53.018Z,9.40
2019-01-19T02:32:25.726Z,9.33
2019-01-19T02:35:20.714Z,9.77
2019-01-19T02:38:09.576Z,9.37
2019-01-19T02:40:42.354Z,6.90
2019-01-19T02:43:27.136Z,9.77
2019-01-19T02:46:17.557Z,7.00
2019-01-19T02:48:58.790Z,8.27
2019-01-19T02:51:46.177Z,8.17
2019-01-19T02:54:27.649Z,8.80
2019-01-19T02:57:30.973Z,7.70
2019-01-19T03:00:20.270Z,7.90
2019-01-19T03:02:52.969Z,6.97
2019-01-19T03:05:37.556Z,6.27
2019-01-19T03:08:28.192Z,8.90
2019-01-19T03:11:12.492Z,7.53
2019-01-19T03:13:48.215Z,8.77
2019-01-19T03:16:29.883Z,8.77
2019-01-19T03:19:11.056Z,6.83
2019-01-19T03:21:58.691Z,7.37
2019-01-19T03:24:31.313Z,8.07
2019-01-19T03:27:12.957Z,7.23
2019-01-19T03:30:00.569Z,8.03
2019-01-19T03:32:57.071Z,9.43
2019-01-19T03:35:32.582Z,10.20
2019-01-19T03:38:32.036Z,9.33
2019-01-19T03:41:31.758Z,8.17
2019-01-19T03:44:25.456Z,8.47
2019-01-19T03:47:18.897Z,8.83
2019-01-19T03:50:07.930Z,8.87
2019-01-19T03:52:49.149Z,9.20
2019-01-19T03:55:47.281Z,8.43
2019-01-19T03:58:36.459Z,7.33
2019-01-19T04:01:28.585Z,7.77
2019-01-19T04:04:19.502Z,7.80
2019-01-19T04:06:58.525Z,8.23
2019-01-19T04:09:33.900Z,8.63
2019-01-19T04:12:21.387Z,8.57
2019-01-19T04:15:02.942Z,10.47
2019-01-19T04:17:50.549Z,8.03
2019-01-19T04:20:45.725Z,9.10
2019-01-19T04:23:15.425Z,8.50
2019-01-19T04:25:48.120Z,9.10
2019-01-19T04:28:18.797Z,8.20
2019-01-19T04:30:49.604Z,7.80
2019-01-19T04:33:19.325Z,8.70
2019-01-19T04:35:48.956Z,8.17
2019-01-19T04:38:19.551Z,8.67
2019-01-19T04:40:49.275Z,8.03
2019-01-19T04:43:18.973Z,8.53
2019-01-19T04:45:49.111Z,8.20
2019-01-19T04:48:20.347Z,8.33
2019-01-19T04:50:50.078Z,8.47
2019-01-19T04:53:19.747Z,7.57
2019-01-19T04:55:49.446Z,8.40
2019-01-19T04:58:19.041Z,8.93
2019-01-19T05:00:48.667Z,8.73
2019-01-19T05:03:18.265Z,8.70
2019-01-19T05:05:47.981Z,8.70
2019-01-19T05:08:17.581Z,7.80
2019-01-19T05:10:47.318Z,8.83
2019-01-19T05:13:17.189Z,8.47
2019-01-19T05:15:46.821Z,9.07
2019-01-19T05:18:16.917Z,8.60
2019-01-19T05:20:46.537Z,8.07
2019-01-19T05:23:16.239Z,8.53
2019-01-19T05:25:45.864Z,8.37
2019-01-19T05:28:16.398Z,8.50
2019-01-19T05:30:46.022Z,8.27
2019-01-19T05:33:15.617Z,7.77
2019-01-19T05:35:45.272Z,7.77
2019-01-19T05:38:14.974Z,8.20
2019-01-19T05:40:44.644Z,7.30
2019-01-19T05:43:14.352Z,8.03
2019-01-19T05:45:44.072Z,7.43
2019-01-19T05:48:13.687Z,7.77
2019-01-19T05:50:43.304Z,7.37
2019-01-19T05:53:12.914Z,7.43
2019-01-19T05:55:42.610Z,7.30
2019-01-19T05:58:12.234Z,7.30
2019-01-19T06:00:41.827Z,7.10
2019-01-19T06:03:11.446Z,6.77
2019-01-19T06:05:41.930Z,6.87
2019-01-19T06:08:11.640Z,7.50
2019-01-19T06:10:41.255Z,7.50
2019-01-19T06:13:10.984Z,6.93
2019-01-19T06:15:40.762Z,7.13
2019-01-19T06:18:10.552Z,6.50
2019-01-19T06:20:40.255Z,6.80
2019-01-19T06:23:09.985Z,7.67
2019-01-19T06:25:39.635Z,6.63
2019-01-19T06:28:09.465Z,6.50
2019-01-19T06:30:39.124Z,7.73
2019-01-19T06:33:08.854Z,6.80
2019-01-19T06:35:38.518Z,8.40
2019-01-19T06:38:08.213Z,7.13
2019-01-19T06:40:37.882Z,7.47
2019-01-19T06:43:07.833Z,8.03
2019-01-19T06:45:37.544Z,5.17
2019-01-19T06:48:07.164Z,7.93
2019-01-19T06:50:36.855Z,7.23
2019-01-19T06:53:06.553Z,8.33
2019-01-19T06:55:36.155Z,7.17
2019-01-19T06:58:05.766Z,7.73
2019-01-19T07:00:35.569Z,8.37
2019-01-19T07:03:05.193Z,8.03
2019-01-19T07:05:34.859Z,7.50
2019-01-19T07:08:04.724Z,8.47
2019-01-19T07:10:34.419Z,8.57
2019-01-19T07:13:04.289Z,8.83
2019-01-19T07:15:34.248Z,8.33
2019-01-19T07:18:03.958Z,8.47
2019-01-19T07:20:33.556Z,10.17
2019-01-19T07:23:03.378Z,9.67
2019-01-19T07:25:33.087Z,9.00
2019-01-19T07:28:02.809Z,9.53
2019-01-19T07:30:32.582Z,9.77
2019-01-19T07:33:02.412Z,9.63
2019-01-19T07:35:32.029Z,9.13
2019-01-19T07:38:01.739Z,10.17
2019-01-19T07:40:31.473Z,9.67
2019-01-19T07:43:01.940Z,9.70
2019-01-19T07:45:31.733Z,8.87
2019-01-19T07:48:01.703Z,9.67
2019-01-19T07:50:32.230Z,10.70
2019-01-19T07:53:02.115Z,12.73
2019-01-19T07:55:31.740Z,10.07
2019-01-19T07:58:01.444Z,10.63
2019-01-19T08:00:32.921Z,10.40
2019-01-19T08:03:02.757Z,12.40
2019-01-19T08:05:32.674Z,13.00
2019-01-19T08:08:02.285Z,13.13
2019-01-19T08:10:32.008Z,12.10
2019-01-19T08:13:01.685Z,11.10
2019-01-19T08:15:31.516Z,11.50
2019-01-19T08:18:01.131Z,11.67
2019-01-19T08:20:30.758Z,11.93
2019-01-19T08:23:00.590Z,12.93
2019-01-19T08:25:30.221Z,11.30
2019-01-19T08:28:01.322Z,11.97
2019-01-19T08:30:31.323Z,10.80
2019-01-19T08:33:01.037Z,10.80
2019-01-19T08:35:31.109Z,11.57
2019-01-19T08:38:00.717Z,10.93
2019-01-19T08:40:33.336Z,11.20
2019-01-19T08:43:10.558Z,12.20
2019-01-19T08:45:40.319Z,12.27
2019-01-19T08:48:10.410Z,11.43
2019-01-19T08:50:40.040Z,10.83
2019-01-19T08:53:09.826Z,10.90
2019-01-19T08:55:39.628Z,11.10
2019-01-19T08:58:09.405Z,10.57
2019-01-19T09:00:39.135Z,10.10
2019-01-19T09:03:08.828Z,10.40
2019-01-19T09:05:39.206Z,10.23
2019-01-19T09:08:08.970Z,10.33
2019-01-19T09:10:38.699Z,10.60
2019-01-19T09:13:08.469Z,10.53
2019-01-19T09:15:38.182Z,9.93
2019-01-19T09:18:09.396Z,10.53
2019-01-19T09:20:39.120Z,10.10
2019-01-19T09:23:16.440Z,10.23
2019-01-19T09:25:46.058Z,10.27
2019-01-19T09:28:15.869Z,10.53
2019-01-19T09:30:45.701Z,10.87
2019-01-19T09:33:15.341Z,10.73
2019-01-19T09:35:45.095Z,11.07
2019-01-19T09:38:14.773Z,10.80
2019-01-19T09:40:44.394Z,11.50
2019-01-19T09:43:14.186Z,9.70
2019-01-19T09:45:43.877Z,9.87
2019-01-19T09:48:13.557Z,10.87
2019-01-19T09:50:43.190Z,10.43
2019-01-19T09:53:12.786Z,11.37
2019-01-19T09:55:42.404Z,10.63
2019-01-19T09:58:12.114Z,10.33
2019-01-19T10:00:45.727Z,10.80
2019-01-19T10:03:14.171Z,10.73
2019-01-19T10:05:43.796Z,12.43
2019-01-19T10:08:13.398Z,11.43
2019-01-19T10:10:43.921Z,11.10
2019-01-19T10:13:13.581Z,10.73
2019-01-19T10:15:43.200Z,12.50
2019-01-19T10:18:12.982Z,12.70
2019-01-19T10:20:47.349Z,12.13
2019-01-19T10:23:17.437Z,13.97
2019-01-19T10:25:47.169Z,12.57
2019-01-19T10:28:17.069Z,13.43
2019-01-19T10:30:46.872Z,13.40
2019-01-19T10:33:16.481Z,12.40
2019-01-19T10:35:46.208Z,13.57
2019-01-19T10:38:15.803Z,12.93
2019-01-19T10:40:46.045Z,13.17
2019-01-19T10:43:15.662Z,13.40
2019-01-19T10:45:45.528Z,13.60
2019-01-19T10:48:15.196Z,12.77
2019-01-19T10:50:44.838Z,12.53
2019-01-19T10:53:14.423Z,13.87
2019-01-19T10:55:44.137Z,12.03
2019-01-19T10:58:13.950Z,13.17
2019-01-19T11:00:43.576Z,13.47
2019-01-19T11:03:13.750Z,13.07
2019-01-19T11:05:43.377Z,14.00
2019-01-19T11:08:13.524Z,12.93
2019-01-19T11:10:43.157Z,13.97
2019-01-19T11:13:12.762Z,14.50
2019-01-19T11:15:42.487Z,13.97
2019-01-19T11:18:12.272Z,13.93
2019-01-19T11:20:41.887Z,13.63
2019-01-19T11:23:11.555Z,13.83
2019-01-19T11:25:41.285Z,13.33
2019-01-19T11:28:10.901Z,13.90
2019-01-19T11:30:40.814Z,14.97
2019-01-19T11:33:10.428Z,12.87
2019-01-19T11:35:40.052Z,13.23
2019-01-19T11:38:12.035Z,13.30
2019-01-19T11:40:40.970Z,13.50
2019-01-19T11:43:10.850Z,13.97
2019-01-19T11:45:40.551Z,13.63
2019-01-19T11:48:10.180Z,12.37
2019-01-19T11:50:39.785Z,12.77
2019-01-19T11:53:09.487Z,13.07
2019-01-19T11:55:39.259Z,13.40
2019-01-19T11:58:09.061Z,12.60
2019-01-19T12:00:39.914Z,12.60
2019-01-19T12:03:09.682Z,12.40
2019-01-19T12:05:39.834Z,14.10
2019-01-19T12:08:10.003Z,13.43
2019-01-19T12:10:39.715Z,12.97
2019-01-19T12:13:09.418Z,13.97
2019-01-19T12:15:39.030Z,13.60
2019-01-19T12:18:08.899Z,13.67
2019-01-19T12:20:42.929Z,13.00
2019-01-19T12:23:13.768Z,13.20
2019-01-19T12:25:43.373Z,13.53
2019-01-19T12:28:13.142Z,15.03
2019-01-19T12:30:43.881Z,14.17
2019-01-19T12:33:13.587Z,13.73
2019-01-19T12:35:43.298Z,13.13
2019-01-19T12:38:13.611Z,13.83
2019-01-19T12:40:43.228Z,13.90
2019-01-19T12:43:15.547Z,13.10
2019-01-19T12:45:55.473Z,13.07
2019-01-19T12:48:25.174Z,12.93
2019-01-19T12:50:54.841Z,12.30
2019-01-19T12:53:24.744Z,13.60
2019-01-19T12:55:54.611Z,12.80
2019-01-19T12:58:24.376Z,13.03
2019-01-19T13:00:53.986Z,13.53
2019-01-19T13:03:25.600Z,13.03
2019-01-19T13:06:04.215Z,12.73
2019-01-19T13:08:35.822Z,12.73
2019-01-19T13:11:33.973Z,12.87
2019-01-19T13:14:04.071Z,11.93
2019-01-19T13:16:49.175Z,13.03
2019-01-19T13:19:24.739Z,12.33
2019-01-19T13:22:13.789Z,12.20
2019-01-19T13:24:58.535Z,12.40
2019-01-19T13:27:40.219Z,11.37
2019-01-19T13:30:21.359Z,15.43
2019-01-19T13:32:59.947Z,12.77
2019-01-19T13:35:39.124Z,37.97
2019-01-19T13:38:23.530Z,37.90
2019-01-19T13:41:07.885Z,13.77
2019-01-19T13:43:46.651Z,12.37
2019-01-19T13:46:52.411Z,13.20
2019-01-19T13:49:44.655Z,12.33
2019-01-19T13:52:17.716Z,11.87
2019-01-19T13:55:05.337Z,13.47
2019-01-19T13:57:38.011Z,12.03
2019-01-19T14:00:18.623Z,13.27
2019-01-19T14:02:56.711Z,12.20
2019-01-19T14:05:32.077Z,12.30
2019-01-19T14:08:07.419Z,13.00
2019-01-19T14:10:45.721Z,16.33
2019-01-19T14:13:39.700Z,15.17
2019-01-19T14:16:15.406Z,12.37
2019-01-19T14:18:51.128Z,11.73
2019-01-19T14:21:26.600Z,13.13
2019-01-19T14:24:14.324Z,12.87
2019-01-19T14:27:04.736Z,12.50
2019-01-19T14:29:40.108Z,13.17
2019-01-19T14:32:38.318Z,13.43
2019-01-19T14:35:13.779Z,12.27
2019-01-19T14:38:09.326Z,12.43
2019-01-19T14:40:44.851Z,15.80
2019-01-19T14:43:31.720Z,12.53
2019-01-19T14:46:16.174Z,16.40
2019-01-19T14:48:57.473Z,13.33
2019-01-19T14:51:41.998Z,17.17
2019-01-19T14:54:20.397Z,16.73
2019-01-19T14:57:13.975Z,12.83
2019-01-19T15:00:13.569Z,13.40
2019-01-19T15:03:07.177Z,13.53
2019-01-19T15:05:42.632Z,18.00
2019-01-19T15:08:17.971Z,15.17
2019-01-19T15:10:53.318Z,14.97
2019-01-19T15:13:40.603Z,19.83
2019-01-19T15:16:18.949Z,12.10
2019-01-19T15:18:58.636Z,12.40
2019-01-19T15:21:56.455Z,11.90
2019-01-19T15:24:40.925Z,11.93
2019-01-19T15:27:25.204Z,10.87
2019-01-19T15:30:21.717Z,11.10
2019-01-19T15:32:57.410Z,12.50
2019-01-19T15:35:38.983Z,11.17
2019-01-19T15:38:20.352Z,11.73
2019-01-19T15:40:58.743Z,12.83
2019-01-19T15:43:43.335Z,11.03
2019-01-19T15:46:21.840Z,11.77
2019-01-19T15:49:18.396Z,11.43
2019-01-19T15:52:07.521Z,10.80
2019-01-19T15:54:40.193Z,11.07
2019-01-19T15:57:30.732Z,12.60
2019-01-19T16:00:21.060Z,11.57
2019-01-19T16:03:08.888Z,12.10
2019-01-19T16:05:41.583Z,12.53
2019-01-19T16:08:16.968Z,11.40
2019-01-19T16:11:04.472Z,11.97
2019-01-19T16:13:52.748Z,10.97
2019-01-19T16:16:34.235Z,10.17
2019-01-19T16:19:21.925Z,13.07
2019-01-19T16:21:57.329Z,14.43
2019-01-19T16:24:30.000Z,17.10
2019-01-19T16:27:31.270Z,16.20
2019-01-19T16:30:06.952Z,18.40
2019-01-19T16:32:39.665Z,13.50
2019-01-19T16:35:18.287Z,18.27
2019-01-19T16:38:06.077Z,12.00
2019-01-19T16:40:47.534Z,12.47
2019-01-19T16:43:20.246Z,18.13
2019-01-19T16:46:13.897Z,12.43
2019-01-19T16:48:49.479Z,13.77
2019-01-19T16:51:28.100Z,15.33
2019-01-19T16:54:03.891Z,15.60
2019-01-19T16:56:52.829Z,16.70
2019-01-19T16:59:40.567Z,16.27
2019-01-19T17:02:32.430Z,13.83
2019-01-19T17:05:13.886Z,13.00
2019-01-19T17:07:55.220Z,13.43
2019-01-19T17:11:02.574Z,13.10
2019-01-19T17:13:42.231Z,12.47
2019-01-19T17:16:26.853Z,12.63
2019-01-19T17:19:03.573Z,14.00
2019-01-19T17:21:39.153Z,17.30
2019-01-19T17:24:17.833Z,16.47
2019-01-19T17:26:59.523Z,14.13
2019-01-19T17:29:32.431Z,13.80
2019-01-19T17:32:16.902Z,18.20
2019-01-19T17:35:17.735Z,13.83
2019-01-19T17:37:57.598Z,13.33
2019-01-19T17:41:00.693Z,13.90
2019-01-19T17:43:38.947Z,13.20
2019-01-19T17:46:17.330Z,15.00
2019-01-19T17:48:50.436Z,15.83
2019-01-19T17:51:25.810Z,13.43
2019-01-19T17:54:10.673Z,19.45
2019-01-19T17:56:49.121Z,17.47
2019-01-19T17:59:30.675Z,19.77
2019-01-19T18:02:06.197Z,19.52
2019-01-19T18:04:38.897Z,14.60
2019-01-19T18:07:14.191Z,14.93
2019-01-19T18:09:49.816Z,14.87
2019-01-19T18:12:43.093Z,17.60
2019-01-19T18:15:24.917Z,15.70
2019-01-19T18:18:06.113Z,17.33
2019-01-19T18:21:06.953Z,14.93
2019-01-19T18:23:39.641Z,15.20
2019-01-19T18:26:18.110Z,21.60
2019-01-19T18:29:15.284Z,18.20
2019-01-19T18:31:53.789Z,16.73
2019-01-19T18:34:53.497Z,17.47
2019-01-19T18:37:48.410Z,19.47
2019-01-19T18:40:46.484Z,18.53
2019-01-19T18:43:33.904Z,17.10
2019-01-19T18:46:09.263Z,20.27
2019-01-19T18:48:56.554Z,19.60
2019-01-19T18:51:45.560Z,18.93
2019-01-19T18:54:38.857Z,15.37
2019-01-19T18:57:27.872Z,16.80
2019-01-19T19:00:21.328Z,19.27
2019-01-19T19:02:57.028Z,20.20
2019-01-19T19:05:35.673Z,21.40
2019-01-19T19:08:14.313Z,21.73
2019-01-19T19:10:55.623Z,21.93
2019-01-19T19:13:44.678Z,21.87
2019-01-19T19:16:33.775Z,21.43
2019-01-19T19:19:12.588Z,21.90
2019-01-19T19:21:50.967Z,17.07
2019-01-19T19:24:32.349Z,18.33
2019-01-19T19:27:29.202Z,18.10
2019-01-19T19:30:10.331Z,18.40
2019-01-19T19:32:45.581Z,17.57
2019-01-19T19:35:23.743Z,18.13
2019-01-19T19:38:18.884Z,17.10
2019-01-19T19:41:02.827Z,18.20
2019-01-19T19:43:35.504Z,20.20
2019-01-19T19:46:11.925Z,18.27
2019-01-19T19:48:53.872Z,22.13
2019-01-19T19:51:32.297Z,23.37
2019-01-19T19:54:01.893Z,22.60
2019-01-19T19:56:30.453Z,22.57
2019-01-19T19:59:00.061Z,26.07
2019-01-19T20:01:29.688Z,27.20
2019-01-19T20:03:59.311Z,23.77
2019-01-19T20:06:28.950Z,22.50
2019-01-19T20:08:58.562Z,21.13
2019-01-19T20:11:28.257Z,19.07
2019-01-19T20:13:57.869Z,17.97
2019-01-19T20:16:27.603Z,19.10
2019-01-19T20:18:57.275Z,17.60
2019-01-19T20:21:26.945Z,18.07
2019-01-19T20:23:56.737Z,20.43
2019-01-19T20:26:26.578Z,22.17
2019-01-19T20:28:56.241Z,18.57
2019-01-19T20:31:25.998Z,18.30
2019-01-19T20:33:55.653Z,16.47
2019-01-19T20:36:25.735Z,20.60
2019-01-19T20:38:55.396Z,33.20
2019-01-19T20:41:25.028Z,29.33
2019-01-19T20:43:54.633Z,29.17
2019-01-19T20:46:24.595Z,24.50
2019-01-19T20:48:54.374Z,22.77
2019-01-19T20:51:24.077Z,25.47
2019-01-19T20:53:53.709Z,25.37
2019-01-19T20:56:23.298Z,24.67
2019-01-19T20:58:54.007Z,27.17
2019-01-19T21:01:23.878Z,23.20
2019-01-19T21:03:55.182Z,26.23
2019-01-19T21:06:24.809Z,25.50
2019-01-19T21:08:54.417Z,25.40
2019-01-19T21:11:24.035Z,29.57
2019-01-19T21:13:54.807Z,30.20
2019-01-19T21:16:26.006Z,26.63
2019-01-19T21:18:55.541Z,25.07
2019-01-19T21:21:25.377Z,24.60
2019-01-19T21:23:54.967Z,24.87
2019-01-19T21:26:24.705Z,30.10
2019-01-19T21:28:54.299Z,29.13
2019-01-19T21:31:24.135Z,27.77
2019-01-19T21:33:53.745Z,27.10
2019-01-19T21:36:23.446Z,26.70
2019-01-19T21:38:53.125Z,29.90
2019-01-19T21:41:22.972Z,26.27
2019-01-19T21:43:52.565Z,24.37
2019-01-19T21:46:22.197Z,26.20
2019-01-19T21:48:51.871Z,23.33
2019-01-19T21:51:21.496Z,26.30
2019-01-19T21:53:51.099Z,25.93
2019-01-19T21:56:20.745Z,25.53
2019-01-19T21:58:50.453Z,27.23
2019-01-19T22:01:20.189Z,26.30
2019-01-19T22:03:49.785Z,24.50
2019-01-19T22:06:19.428Z,27.10
2019-01-19T22:08:49.036Z,24.63
2019-01-19T22:11:18.984Z,27.90
2019-01-19T22:13:48.715Z,26.27
2019-01-19T22:16:18.735Z,26.43
2019-01-19T22:18:48.447Z,25.80
2019-01-19T22:21:18.157Z,22.30
2019-01-19T22:23:47.899Z,25.13
2019-01-19T22:26:18.676Z,23.93
2019-01-19T22:28:48.605Z,23.20
2019-01-19T22:31:18.409Z,24.80
2019-01-19T22:33:48.145Z,24.23
2019-01-19T22:36:18.348Z,23.10
2019-01-19T22:38:47.995Z,22.87
2019-01-19T22:41:17.694Z,24.90
2019-01-19T22:43:47.630Z,25.90
2019-01-19T22:46:17.305Z,25.30
2019-01-19T22:48:47.205Z,26.00
2019-01-19T22:51:16.913Z,28.23
2019-01-19T22:53:46.645Z,28.53
2019-01-19T22:56:16.453Z,27.33
2019-01-19T22:58:46.088Z,23.60
2019-01-19T23:01:30.616Z,24.83
2019-01-19T23:04:00.349Z,26.67
2019-01-19T23:06:38.703Z,24.03
2019-01-19T23:09:10.555Z,24.23
2019-01-19T23:11:40.221Z,23.90
2019-01-19T23:14:10.689Z,24.53
2019-01-19T23:16:40.650Z,25.37
2019-01-19T23:19:10.643Z,25.83
2019-01-19T23:21:40.253Z,23.97
2019-01-19T23:24:09.888Z,24.33
2019-01-19T23:26:39.554Z,23.20
2019-01-19T23:29:09.281Z,23.57
2019-01-19T23:31:39.294Z,25.93
2019-01-19T23:34:09.784Z,29.37
2019-01-19T23:36:39.392Z,29.37
2019-01-19T23:39:09.755Z,28.73
2019-01-19T23:41:39.496Z,23.40
2019-01-19T23:44:09.212Z,20.83
2019-01-19T23:46:38.884Z,21.23
2019-01-19T23:49:08.519Z,20.30
2019-01-19T23:51:38.134Z,20.70
2019-01-19T23:54:07.858Z,18.73
2019-01-19T23:56:37.447Z,19.73
2019-01-19T23:59:07.161Z,18.97
